createdAt,value
2018-06-08T00:00:23.356Z,94.39
2018-06-08T00:01:23.362Z,94.00
2018-06-08T00:02:23.373Z,94.10
2018-06-08T00:03:23.368Z,95.31
2018-06-08T00:04:23.383Z,96.17
2018-06-08T00:05:23.376Z,95.98
2018-06-08T00:06:23.383Z,97.04
2018-06-08T00:07:23.383Z,96.37
2018-06-08T00:08:23.391Z,96.46
2018-06-08T00:09:23.397Z,94.68
2018-06-08T00:10:23.394Z,94.10
2018-06-08T00:11:23.401Z,94.87
2018-06-08T00:12:23.411Z,94.58
2018-06-08T00:13:23.411Z,94.68
2018-06-08T00:14:23.423Z,95.21
2018-06-08T00:15:23.421Z,95.79
2018-06-08T00:16:23.428Z,95.98
2018-06-08T00:17:23.432Z,94.00
2018-06-08T00:18:23.443Z,94.20
2018-06-08T00:19:23.450Z,94.87
2018-06-08T00:20:23.439Z,94.39
2018-06-08T00:21:23.448Z,94.68
2018-06-08T00:22:23.473Z,94.68
2018-06-08T00:23:23.459Z,94.96
2018-06-08T00:24:23.469Z,94.48
2018-06-08T00:25:23.475Z,95.26
2018-06-08T00:26:23.475Z,94.58
2018-06-08T00:27:23.473Z,94.20
2018-06-08T00:28:23.492Z,94.20
2018-06-08T00:29:23.490Z,94.78
2018-06-08T00:30:23.486Z,95.40
2018-06-08T00:31:23.505Z,95.89
2018-06-08T00:32:23.502Z,96.08
2018-06-08T00:33:23.513Z,95.79
2018-06-08T00:34:23.508Z,95.98
2018-06-08T00:35:23.508Z,96.37
2018-06-08T00:36:23.514Z,96.03
2018-06-08T00:37:23.524Z,96.61
2018-06-08T00:38:23.526Z,96.51
2018-06-08T00:39:23.529Z,96.32
2018-06-08T00:40:23.538Z,95.74
2018-06-08T00:41:23.538Z,95.84
2018-06-08T00:42:23.544Z,95.21
2018-06-08T00:43:23.550Z,95.21
2018-06-08T00:44:23.551Z,95.07
2018-06-08T00:45:23.560Z,95.94
2018-06-08T00:46:23.561Z,96.22
2018-06-08T00:47:23.569Z,96.89
2018-06-08T00:48:23.589Z,97.76
2018-06-08T00:49:23.575Z,96.32
2018-06-08T00:50:23.581Z,96.70
2018-06-08T00:51:23.584Z,95.84
2018-06-08T00:52:23.587Z,95.55
2018-06-08T00:53:23.591Z,94.63
2018-06-08T00:54:23.598Z,95.74
2018-06-08T00:55:23.613Z,95.74
2018-06-08T00:56:23.606Z,95.45
2018-06-08T00:57:23.668Z,95.64
2018-06-08T00:58:23.612Z,95.94
2018-06-08T00:59:23.636Z,94.15
2018-06-08T01:00:23.634Z,93.19
2018-06-08T01:01:23.625Z,94.10
2018-06-08T01:02:23.634Z,95.07
2018-06-08T01:03:23.632Z,94.87
2018-06-08T01:04:23.636Z,95.79
2018-06-08T01:05:23.644Z,94.87
2018-06-08T01:07:53.753Z,92.41
2018-06-08T01:08:53.299Z,92.61
2018-06-08T01:10:38.087Z,93.52
2018-06-08T01:11:38.074Z,93.09
2018-06-08T01:12:38.091Z,91.36
2018-06-08T01:13:38.085Z,93.24
2018-06-08T01:14:38.085Z,95.26
2018-06-08T01:15:38.091Z,95.16
2018-06-08T01:16:38.099Z,95.69
2018-06-08T01:17:38.104Z,94.34
2018-06-08T01:18:38.105Z,95.79
2018-06-08T01:19:38.111Z,96.46
2018-06-08T01:20:38.111Z,96.46
2018-06-08T01:21:38.115Z,95.69
2018-06-08T01:22:38.125Z,96.46
2018-06-08T01:23:38.126Z,97.14
2018-06-08T01:24:38.127Z,97.86
2018-06-08T01:25:38.130Z,96.08
2018-06-08T01:26:38.138Z,94.92
2018-06-08T01:27:38.142Z,94.92
2018-06-08T01:28:38.150Z,95.60
2018-06-08T01:29:38.157Z,95.79
2018-06-08T01:30:38.157Z,97.19
2018-06-08T01:31:38.161Z,97.96
2018-06-08T01:32:38.167Z,98.24
2018-06-08T01:33:38.166Z,99.01
2018-06-08T01:34:38.170Z,98.05
2018-06-08T01:35:38.180Z,97.09
2018-06-08T01:36:38.176Z,97.19
2018-06-08T01:37:38.226Z,97.57
2018-06-08T01:38:38.187Z,98.05
2018-06-08T01:39:38.197Z,97.42
2018-06-08T01:40:38.205Z,96.46
2018-06-08T01:41:38.201Z,95.89
2018-06-08T01:42:38.200Z,95.31
2018-06-08T01:43:38.206Z,95.12
2018-06-08T01:44:38.228Z,96.08
2018-06-08T01:45:38.215Z,96.27
2018-06-08T01:46:38.223Z,95.98
2018-06-08T01:47:38.231Z,96.22
2018-06-08T01:48:38.226Z,98.44
2018-06-08T01:49:38.238Z,97.28
2018-06-08T01:50:38.235Z,97.19
2018-06-08T01:51:38.239Z,96.61
2018-06-08T01:52:38.251Z,95.89
2018-06-08T01:53:38.251Z,96.66
2018-06-08T01:54:38.262Z,96.51
2018-06-08T01:55:38.270Z,96.03
2018-06-08T01:56:38.260Z,96.61
2018-06-08T01:57:38.268Z,97.28
2018-06-08T01:58:38.266Z,98.05
2018-06-08T01:59:38.273Z,97.19
2018-06-08T02:00:38.270Z,93.72
2018-06-08T02:01:38.276Z,92.56
2018-06-08T02:02:38.284Z,93.29
2018-06-08T02:03:38.282Z,93.67
2018-06-08T02:04:38.286Z,95.74
2018-06-08T02:05:38.288Z,96.80
2018-06-08T02:06:38.289Z,96.42
2018-06-08T02:07:38.302Z,95.98
2018-06-08T02:08:38.313Z,93.29
2018-06-08T02:09:38.305Z,91.16
2018-06-08T02:10:38.317Z,92.66
2018-06-08T02:11:38.318Z,94.15
2018-06-08T02:12:38.314Z,95.50
2018-06-08T02:13:38.324Z,95.40
2018-06-08T02:14:38.330Z,95.50
2018-06-08T02:15:38.330Z,95.94
2018-06-08T02:16:38.337Z,96.51
2018-06-08T02:17:38.338Z,96.80
2018-06-08T02:18:38.359Z,95.74
2018-06-08T02:19:38.345Z,95.55
2018-06-08T02:20:38.346Z,95.74
2018-06-08T02:21:38.356Z,95.45
2018-06-08T02:22:38.359Z,95.65
2018-06-08T02:23:38.356Z,95.36
2018-06-08T02:24:38.364Z,95.02
2018-06-08T02:25:38.364Z,94.73
2018-06-08T02:26:38.373Z,94.92
2018-06-08T02:27:38.373Z,92.71
2018-06-08T02:28:38.375Z,92.90
2018-06-08T02:29:38.384Z,93.48
2018-06-08T02:30:38.388Z,93.91
2018-06-08T02:31:38.388Z,94.78
2018-06-08T02:32:38.394Z,94.78
2018-06-08T02:33:38.398Z,95.79
2018-06-08T02:34:38.401Z,98.24
2018-06-08T02:35:38.406Z,98.19
2018-06-08T02:36:38.410Z,98.10
2018-06-08T02:37:38.409Z,97.62
2018-06-08T02:38:38.413Z,98.91
2018-06-08T02:39:38.428Z,99.98
2018-06-08T02:40:38.422Z,99.01
2018-06-08T02:41:38.428Z,97.14
2018-06-08T02:42:38.436Z,97.62
2018-06-08T02:43:38.437Z,97.52
2018-06-08T02:44:38.441Z,97.71
2018-06-08T02:45:38.443Z,97.62
2018-06-08T02:46:38.449Z,97.81
2018-06-08T02:47:38.446Z,97.33
2018-06-08T02:48:38.451Z,94.30
2018-06-08T02:49:38.461Z,94.97
2018-06-08T02:50:38.470Z,96.56
2018-06-08T02:51:38.477Z,97.04
2018-06-08T02:52:38.464Z,95.74
2018-06-08T02:53:38.470Z,95.98
2018-06-08T02:54:38.473Z,98.05
2018-06-08T02:55:38.490Z,98.00
2018-06-08T02:56:38.483Z,96.56
2018-06-08T02:57:38.480Z,96.17
2018-06-08T02:58:38.485Z,98.44
2018-06-08T02:59:38.502Z,98.34
2018-06-08T03:00:38.511Z,99.11
2018-06-08T03:01:38.494Z,99.68
2018-06-08T03:02:38.503Z,98.44
2018-06-08T03:03:38.504Z,97.71
2018-06-08T03:22:58.353Z,96.47
2018-06-08T03:23:58.336Z,97.19
2018-06-08T03:24:58.337Z,97.67
2018-06-08T03:25:58.335Z,98.14
2018-06-08T03:26:58.335Z,98.34
2018-06-08T03:27:58.333Z,96.70
2018-06-08T03:28:58.332Z,97.09
2018-06-08T03:29:58.341Z,98.44
2018-06-08T03:30:58.339Z,94.49
2018-06-08T03:31:58.339Z,94.30
2018-06-08T03:32:58.338Z,95.70
2018-06-08T03:33:58.339Z,95.31
2018-06-08T03:34:58.343Z,96.51
2018-06-08T03:35:58.420Z,97.38
2018-06-08T03:36:58.343Z,97.28
2018-06-08T03:37:58.345Z,96.80
2018-06-08T03:38:58.352Z,96.42
2018-06-08T03:39:58.360Z,97.47
2018-06-08T03:40:58.353Z,97.28
2018-06-08T03:41:58.359Z,97.91
2018-06-08T03:42:58.369Z,99.25
2018-06-08T03:44:06.999Z,97.19
2018-06-08T03:45:51.801Z,96.03
2018-06-08T03:46:51.771Z,96.51
2018-06-08T03:47:51.773Z,97.19
2018-06-08T03:48:51.785Z,97.67
2018-06-08T03:50:00.419Z,97.47
2018-06-08T03:51:54.248Z,95.84
2018-06-08T03:52:45.193Z,97.28
2018-06-08T03:53:45.195Z,97.47
2018-06-08T03:54:45.211Z,96.61
2018-06-08T03:55:45.197Z,96.22
2018-06-08T03:56:45.211Z,95.65
2018-06-08T03:57:45.207Z,95.31
2018-06-08T03:58:45.203Z,94.45
2018-06-08T03:59:45.214Z,94.35
2018-06-08T04:00:45.215Z,95.12
2018-06-08T04:01:45.217Z,96.03
2018-06-08T04:02:45.230Z,95.40
2018-06-08T04:03:45.226Z,95.60
2018-06-08T04:04:45.228Z,95.36
2018-06-08T04:05:45.229Z,95.40
2018-06-08T04:06:45.233Z,95.21
2018-06-08T04:07:45.238Z,95.50
2018-06-08T04:08:45.242Z,95.50
2018-06-08T04:09:45.245Z,94.45
2018-06-08T04:10:45.249Z,93.68
2018-06-08T04:11:45.254Z,95.36
2018-06-08T04:12:45.266Z,95.70
2018-06-08T04:13:45.256Z,94.35
2018-06-08T04:14:45.259Z,95.60
2018-06-08T04:15:45.269Z,94.45
2018-06-08T04:16:45.273Z,93.62
2018-06-08T04:17:45.278Z,94.35
2018-06-08T04:18:45.274Z,93.62
2018-06-08T04:19:45.278Z,93.96
2018-06-08T04:20:45.280Z,92.85
2018-06-08T04:21:45.290Z,93.33
2018-06-08T04:22:45.292Z,93.43
2018-06-08T04:23:45.296Z,92.85
2018-06-08T04:24:45.303Z,94.35
2018-06-08T04:25:45.314Z,94.83
2018-06-08T04:26:45.308Z,93.91
2018-06-08T04:27:45.304Z,93.43
2018-06-08T04:28:45.317Z,93.05
2018-06-08T04:29:45.319Z,94.20
2018-06-08T04:30:45.321Z,93.43
2018-06-08T04:31:45.329Z,94.59
2018-06-08T04:32:45.337Z,94.68
2018-06-08T04:33:45.334Z,93.82
2018-06-08T04:34:45.339Z,94.68
2018-06-08T04:35:45.345Z,91.36
2018-06-08T04:36:45.342Z,92.61
2018-06-08T04:37:45.346Z,93.00
2018-06-08T04:38:45.350Z,91.21
2018-06-08T04:39:45.360Z,91.02
2018-06-08T04:40:45.366Z,91.27
2018-06-08T04:41:45.368Z,91.65
2018-06-08T04:42:45.372Z,91.41
2018-06-08T04:43:45.375Z,90.34
2018-06-08T04:44:45.384Z,90.34
2018-06-08T04:45:45.389Z,90.34
2018-06-08T04:46:45.390Z,88.85
2018-06-08T04:47:45.397Z,88.46
2018-06-08T04:48:45.405Z,89.14
2018-06-08T04:49:45.411Z,89.04
2018-06-08T04:50:45.410Z,89.58
2018-06-08T04:51:45.498Z,89.04
2018-06-08T04:52:45.425Z,89.72
2018-06-08T04:53:45.435Z,89.23
2018-06-08T04:54:45.435Z,89.43
2018-06-08T04:55:45.443Z,87.98
2018-06-08T04:56:45.448Z,88.56
2018-06-08T04:57:45.451Z,89.53
2018-06-08T04:58:45.463Z,87.40
2018-06-08T04:59:45.466Z,87.64
2018-06-08T05:00:45.480Z,87.26
2018-06-08T05:01:45.476Z,87.50
2018-06-08T05:02:45.489Z,86.96
2018-06-08T05:03:45.487Z,84.93
2018-06-08T05:04:45.492Z,82.51
2018-06-08T05:05:45.506Z,83.67
2018-06-08T05:06:45.510Z,82.81
2018-06-08T05:07:45.519Z,81.63
2018-06-08T05:08:45.523Z,80.86
2018-06-08T05:09:45.553Z,81.20
2018-06-08T05:10:45.532Z,81.63
2018-06-08T05:11:45.540Z,81.59
2018-06-08T05:12:45.549Z,81.68
2018-06-08T05:13:45.558Z,81.59
2018-06-08T05:14:45.564Z,82.17
2018-06-08T05:15:45.574Z,82.90
2018-06-08T05:16:45.572Z,82.65
2018-06-08T05:17:45.589Z,82.36
2018-06-08T05:18:45.587Z,82.36
2018-06-08T05:19:45.594Z,82.46
2018-06-08T05:20:45.610Z,82.26
2018-06-08T05:21:45.607Z,81.98
2018-06-08T05:24:06.671Z,82.21
2018-06-08T05:25:06.663Z,82.02
2018-06-08T05:26:06.666Z,82.11
2018-06-08T05:27:06.670Z,81.68
2018-06-08T05:28:06.687Z,82.07
2018-06-08T05:29:06.693Z,81.73
2018-06-08T05:30:06.696Z,81.73
2018-06-08T05:31:06.702Z,82.65
2018-06-08T05:32:06.706Z,83.33
2018-06-08T05:33:06.716Z,83.04
2018-06-08T05:34:06.720Z,83.09
2018-06-08T05:35:06.730Z,83.42
2018-06-08T05:36:06.786Z,83.39
2018-06-08T05:37:06.743Z,83.09
2018-06-08T05:38:06.750Z,83.96
2018-06-08T05:39:06.756Z,84.64
2018-06-08T05:40:06.770Z,85.31
2018-06-08T05:41:06.775Z,84.93
2018-06-08T05:42:06.778Z,84.74
2018-06-08T05:43:06.790Z,84.44
2018-06-08T05:44:06.791Z,84.88
2018-06-08T05:45:06.810Z,83.72
2018-06-08T05:46:06.812Z,83.81
2018-06-08T05:47:06.811Z,83.18
2018-06-08T05:48:06.879Z,84.00
2018-06-08T05:49:06.830Z,82.89
2018-06-08T05:50:06.843Z,83.47
2018-06-08T05:51:06.844Z,83.27
2018-06-08T05:52:06.842Z,82.31
2018-06-08T05:53:06.860Z,82.69
2018-06-08T05:54:06.864Z,82.40
2018-06-08T05:55:06.875Z,82.40
2018-06-08T05:56:06.874Z,83.08
2018-06-08T05:57:06.889Z,82.40
2018-06-08T05:58:06.892Z,83.08
2018-06-08T05:59:06.902Z,82.06
2018-06-08T06:00:06.902Z,81.48
2018-06-08T06:01:06.963Z,81.48
2018-06-08T06:02:06.926Z,81.81
2018-06-08T06:03:06.935Z,81.52
2018-06-08T06:04:06.942Z,80.71
2018-06-08T06:05:06.948Z,81.19
2018-06-08T06:06:06.958Z,81.96
2018-06-08T06:07:06.961Z,81.67
2018-06-08T06:08:07.002Z,81.87
2018-06-08T06:09:06.976Z,81.96
2018-06-08T06:10:06.988Z,81.77
2018-06-08T06:11:06.992Z,81.67
2018-06-08T06:12:06.998Z,82.35
2018-06-08T06:13:07.008Z,81.57
2018-06-08T06:14:07.019Z,81.38
2018-06-08T06:15:07.022Z,81.71
2018-06-08T06:16:07.034Z,82.00
2018-06-08T06:17:07.040Z,81.71
2018-06-08T06:18:07.048Z,82.00
2018-06-08T06:19:07.059Z,80.65
2018-06-08T06:20:07.064Z,81.13
2018-06-08T06:21:07.078Z,81.71
2018-06-08T06:22:07.077Z,81.71
2018-06-08T06:23:07.088Z,81.32
2018-06-08T06:24:07.103Z,82.39
2018-06-08T06:25:07.102Z,82.20
2018-06-08T06:26:07.112Z,82.48
2018-06-08T06:27:07.113Z,82.33
2018-06-08T06:29:28.166Z,80.98
2018-06-08T06:30:28.156Z,81.46
2018-06-08T06:31:28.172Z,80.88
2018-06-08T06:32:28.178Z,82.04
2018-06-08T06:33:28.187Z,81.23
2018-06-08T06:34:28.187Z,80.94
2018-06-08T06:35:28.196Z,81.52
2018-06-08T06:36:28.209Z,80.74
2018-06-08T06:37:28.211Z,80.84
2018-06-08T06:38:28.220Z,81.07
2018-06-08T06:39:28.227Z,79.43
2018-06-08T06:40:28.234Z,80.01
2018-06-08T06:41:28.242Z,80.11
2018-06-08T06:42:28.250Z,80.84
2018-06-08T06:43:28.262Z,80.30
2018-06-08T06:44:28.259Z,80.69
2018-06-08T06:45:28.267Z,80.20
2018-06-08T06:46:28.281Z,80.98
2018-06-08T06:47:28.291Z,80.55
2018-06-08T06:48:28.292Z,81.23
2018-06-08T06:49:28.300Z,81.81
2018-06-08T06:50:28.308Z,81.62
2018-06-08T06:51:28.318Z,82.93
2018-06-08T06:52:28.318Z,82.29
2018-06-08T06:53:28.326Z,82.20
2018-06-08T06:54:28.333Z,81.95
2018-06-08T06:55:28.349Z,81.42
2018-06-08T06:56:28.352Z,82.20
2018-06-08T06:57:28.363Z,81.23
2018-06-08T06:58:28.367Z,81.42
2018-06-08T06:59:28.377Z,81.62
2018-06-08T07:00:28.382Z,81.75
2018-06-08T07:01:28.388Z,81.37
2018-06-08T07:02:28.394Z,81.46
2018-06-08T07:03:28.414Z,81.37
2018-06-08T07:04:28.442Z,81.81
2018-06-08T07:05:28.413Z,82.53
2018-06-08T07:06:28.428Z,81.65
2018-06-08T07:07:28.437Z,81.27
2018-06-08T07:08:28.437Z,80.92
2018-06-08T07:09:28.441Z,80.24
2018-06-08T07:10:28.449Z,80.98
2018-06-08T07:11:28.456Z,80.40
2018-06-08T07:12:28.470Z,80.01
2018-06-08T07:13:28.491Z,80.59
2018-06-08T07:14:28.478Z,81.56
2018-06-08T07:15:28.492Z,81.17
2018-06-08T07:16:28.508Z,82.10
2018-06-08T07:17:28.501Z,82.68
2018-06-08T07:18:28.515Z,81.81
2018-06-08T07:19:28.536Z,81.56
2018-06-08T07:20:28.533Z,81.21
2018-06-08T07:21:28.647Z,81.02
2018-06-08T07:22:28.560Z,81.50
2018-06-08T07:23:28.548Z,80.40
2018-06-08T07:24:28.550Z,81.07
2018-06-08T07:25:28.562Z,81.07
2018-06-08T07:26:28.565Z,81.17
2018-06-08T07:27:28.573Z,80.69
2018-06-08T07:28:28.583Z,80.24
2018-06-08T07:29:28.584Z,80.15
2018-06-08T07:30:28.599Z,80.11
2018-06-08T07:31:28.672Z,80.69
2018-06-08T07:32:28.615Z,82.04
2018-06-08T07:33:28.617Z,82.53
2018-06-08T07:34:28.624Z,81.56
2018-06-08T07:35:28.630Z,81.85
2018-06-08T07:36:28.642Z,81.85
2018-06-08T07:37:28.645Z,81.46
2018-06-08T07:38:28.659Z,81.70
2018-06-08T07:39:28.665Z,80.73
2018-06-08T07:40:28.668Z,80.54
2018-06-08T07:41:28.681Z,81.75
2018-06-08T07:42:28.684Z,82.33
2018-06-08T07:43:28.694Z,82.43
2018-06-08T07:44:28.711Z,82.23
2018-06-08T07:45:28.718Z,81.85
2018-06-08T07:46:28.714Z,82.29
2018-06-08T07:47:28.722Z,82.10
2018-06-08T07:48:28.731Z,82.20
2018-06-08T07:49:28.732Z,81.81
2018-06-08T07:50:28.745Z,81.81
2018-06-08T07:51:28.751Z,82.73
2018-06-08T07:52:28.760Z,83.99
2018-06-08T07:53:28.767Z,83.51
2018-06-08T07:54:28.780Z,84.13
2018-06-08T07:55:28.784Z,83.55
2018-06-08T07:56:28.793Z,84.95
2018-06-08T07:57:28.801Z,84.13
2018-06-08T07:58:28.804Z,83.74
2018-06-08T07:59:28.812Z,83.36
2018-06-08T08:00:28.818Z,83.45
2018-06-08T08:01:28.824Z,84.13
2018-06-08T08:02:28.830Z,83.94
2018-06-08T08:03:28.835Z,83.55
2018-06-08T08:04:28.855Z,83.64
2018-06-08T08:05:28.852Z,83.64
2018-06-08T08:06:28.860Z,82.81
2018-06-08T08:07:28.883Z,83.78
2018-06-08T08:08:28.868Z,83.92
2018-06-08T08:09:28.882Z,82.86
2018-06-08T08:10:28.893Z,82.57
2018-06-08T08:11:28.895Z,81.73
2018-06-08T08:12:28.897Z,82.41
2018-06-08T08:13:28.934Z,81.93
2018-06-08T08:14:28.916Z,81.05
2018-06-08T08:15:28.918Z,81.45
2018-06-08T08:16:28.934Z,81.70
2018-06-08T08:17:28.942Z,81.98
2018-06-08T08:18:28.940Z,81.79
2018-06-08T08:19:28.961Z,81.89
2018-06-08T08:20:28.958Z,82.08
2018-06-08T08:21:28.962Z,81.60
2018-06-08T08:22:28.976Z,81.02
2018-06-08T08:23:28.979Z,80.63
2018-06-08T08:24:28.988Z,80.44
2018-06-08T08:25:28.995Z,80.92
2018-06-08T08:26:29.006Z,80.44
2018-06-08T08:27:29.009Z,81.02
2018-06-08T08:28:29.016Z,80.92
2018-06-08T08:29:29.024Z,82.43
2018-06-08T08:30:29.033Z,82.53
2018-06-08T08:31:29.042Z,82.53
2018-06-08T08:32:29.049Z,82.91
2018-06-08T08:33:29.056Z,83.88
2018-06-08T08:34:29.064Z,83.01
2018-06-08T08:35:29.069Z,83.20
2018-06-08T08:36:29.074Z,84.61
2018-06-08T08:37:29.083Z,83.94
2018-06-08T08:38:29.090Z,84.03
2018-06-08T08:39:29.101Z,84.71
2018-06-08T08:40:29.109Z,85.04
2018-06-08T08:41:29.121Z,84.75
2018-06-08T08:42:29.120Z,83.55
2018-06-08T08:43:29.129Z,83.11
2018-06-08T08:44:29.137Z,82.62
2018-06-08T08:45:29.143Z,82.81
2018-06-08T08:46:29.262Z,82.81
2018-06-08T08:47:29.161Z,81.89
2018-06-08T08:48:29.161Z,81.89
2018-06-08T08:49:29.176Z,81.89
2018-06-08T08:50:29.183Z,80.73
2018-06-08T08:51:29.207Z,80.92
2018-06-08T08:52:29.191Z,82.66
2018-06-08T08:53:29.212Z,82.08
2018-06-08T08:54:29.207Z,82.86
2018-06-08T08:55:29.218Z,82.23
2018-06-08T08:56:29.224Z,82.81
2018-06-08T08:57:29.231Z,83.49
2018-06-08T08:58:29.235Z,83.69
2018-06-08T08:59:29.248Z,83.59
2018-06-08T09:00:29.250Z,83.20
2018-06-08T09:01:29.257Z,82.39
2018-06-08T09:02:29.267Z,82.62
2018-06-08T09:03:29.297Z,82.04
2018-06-08T09:04:29.281Z,83.11
2018-06-08T09:05:29.292Z,82.28
2018-06-08T09:06:29.294Z,82.66
2018-06-08T09:07:29.303Z,82.37
2018-06-08T09:08:29.312Z,81.98
2018-06-08T09:09:29.316Z,81.21
2018-06-08T09:10:29.322Z,80.73
2018-06-08T09:11:29.360Z,81.60
2018-06-08T09:12:29.335Z,82.08
2018-06-08T09:13:29.340Z,81.30
2018-06-08T09:14:29.355Z,80.82
2018-06-08T09:15:29.358Z,81.02
2018-06-08T09:16:29.364Z,81.70
2018-06-08T09:17:29.372Z,81.89
2018-06-08T09:18:29.382Z,81.70
2018-06-08T09:19:29.416Z,81.89
2018-06-08T09:20:29.391Z,81.60
2018-06-08T09:21:29.403Z,82.28
2018-06-08T09:22:29.407Z,82.08
2018-06-08T09:23:29.417Z,82.18
2018-06-08T09:24:29.425Z,82.57
2018-06-08T09:25:29.435Z,82.57
2018-06-08T09:26:29.439Z,82.47
2018-06-08T09:27:29.446Z,81.79
2018-06-08T09:28:29.452Z,82.66
2018-06-08T09:29:29.474Z,82.03
2018-06-08T09:30:29.467Z,79.85
2018-06-08T09:31:29.474Z,80.15
2018-06-08T09:32:29.478Z,79.57
2018-06-08T09:33:29.494Z,79.08
2018-06-08T09:34:29.498Z,79.02
2018-06-08T09:35:29.508Z,79.12
2018-06-08T09:36:29.507Z,79.22
2018-06-08T09:37:29.518Z,80.77
2018-06-08T09:38:29.527Z,80.28
2018-06-08T09:39:29.546Z,79.60
2018-06-08T09:40:29.543Z,79.99
2018-06-08T09:41:29.552Z,80.19
2018-06-08T09:42:29.561Z,79.22
2018-06-08T09:43:29.567Z,80.05
2018-06-08T09:44:29.573Z,80.09
2018-06-08T09:45:29.588Z,79.70
2018-06-08T09:46:29.617Z,79.22
2018-06-08T09:47:29.604Z,78.64
2018-06-08T09:48:29.602Z,77.96
2018-06-08T09:49:29.609Z,78.05
2018-06-08T09:50:29.626Z,77.76
2018-06-08T09:51:29.632Z,77.32
2018-06-08T09:52:29.628Z,77.22
2018-06-08T09:53:29.667Z,76.54
2018-06-08T09:54:29.667Z,77.80
2018-06-08T09:55:29.657Z,77.61
2018-06-08T09:56:29.687Z,77.32
2018-06-08T09:57:29.680Z,77.70
2018-06-08T09:58:29.682Z,78.77
2018-06-08T09:59:29.687Z,78.38
2018-06-08T10:00:29.705Z,77.36
2018-06-08T10:01:29.744Z,77.12
2018-06-08T10:02:29.754Z,77.65
2018-06-08T10:03:29.731Z,77.42
2018-06-08T10:04:29.776Z,76.93
2018-06-08T10:05:29.771Z,77.55
2018-06-08T10:06:29.779Z,76.64
2018-06-08T10:07:29.749Z,76.64
2018-06-08T10:08:29.793Z,77.12
2018-06-08T10:09:29.773Z,77.32
2018-06-08T10:10:29.773Z,77.90
2018-06-08T10:11:29.779Z,77.51
2018-06-08T10:12:29.795Z,77.03
2018-06-08T10:13:29.789Z,76.54
2018-06-08T10:14:29.801Z,76.64
2018-06-08T10:15:29.816Z,76.54
2018-06-08T10:16:29.839Z,75.87
2018-06-08T10:17:29.997Z,76.83
2018-06-08T10:18:29.844Z,76.54
2018-06-08T10:19:29.844Z,77.61
2018-06-08T10:20:31.841Z,75.96
2018-06-08T10:21:29.861Z,75.34
2018-06-08T10:22:29.882Z,76.54
2018-06-08T10:23:29.878Z,76.06
2018-06-08T10:24:29.882Z,75.63
2018-06-08T10:25:29.891Z,75.57
2018-06-08T10:26:29.899Z,75.92
2018-06-08T10:27:29.901Z,76.25
2018-06-08T10:28:29.911Z,75.19
2018-06-08T10:29:29.916Z,75.09
2018-06-08T10:30:29.923Z,75.92
2018-06-08T10:31:29.933Z,76.99
2018-06-08T10:32:29.941Z,77.47
2018-06-08T10:33:29.949Z,77.37
2018-06-08T10:34:29.958Z,77.37
2018-06-08T10:35:29.963Z,76.99
2018-06-08T10:36:29.970Z,77.76
2018-06-08T10:37:29.973Z,78.15
2018-06-08T10:38:29.991Z,77.09
2018-06-08T10:39:29.994Z,78.25
2018-06-08T10:40:30.009Z,77.47
2018-06-08T10:41:30.013Z,76.74
2018-06-08T10:42:30.015Z,76.54
2018-06-08T10:43:30.067Z,77.06
2018-06-08T10:44:30.028Z,74.60
2018-06-08T10:45:30.032Z,74.99
2018-06-08T10:46:30.046Z,74.51
2018-06-08T10:47:30.055Z,74.99
2018-06-08T10:48:30.076Z,74.64
2018-06-08T10:49:30.074Z,73.67
2018-06-08T10:50:30.080Z,73.67
2018-06-08T10:51:30.082Z,74.35
2018-06-08T10:52:30.094Z,73.58
2018-06-08T10:53:30.108Z,72.41
2018-06-08T10:54:30.107Z,73.67
2018-06-08T10:55:30.114Z,73.09
2018-06-08T10:56:30.123Z,73.96
2018-06-08T10:57:30.137Z,72.89
2018-06-08T10:58:30.154Z,74.12
2018-06-08T10:59:30.149Z,74.35
2018-06-08T11:00:30.156Z,72.31
2018-06-08T11:01:30.166Z,72.74
2018-06-08T11:02:30.186Z,72.06
2018-06-08T11:03:30.192Z,71.86
2018-06-08T11:04:30.191Z,73.58
2018-06-08T11:05:30.197Z,74.54
2018-06-08T11:06:30.213Z,75.65
2018-06-08T11:07:30.249Z,75.13
2018-06-08T11:08:30.214Z,74.64
2018-06-08T11:09:30.227Z,73.38
2018-06-08T11:10:30.245Z,74.06
2018-06-08T11:11:30.237Z,73.67
2018-06-08T11:12:30.246Z,75.26
2018-06-08T11:13:30.254Z,75.03
2018-06-08T11:14:30.261Z,73.48
2018-06-08T11:15:30.269Z,72.83
2018-06-08T11:16:30.277Z,72.02
2018-06-08T11:17:30.285Z,72.89
2018-06-08T11:18:30.295Z,74.26
2018-06-08T11:19:30.303Z,72.45
2018-06-08T11:20:30.307Z,71.38
2018-06-08T11:21:30.318Z,71.28
2018-06-08T11:22:30.334Z,71.58
2018-06-08T11:23:30.334Z,71.67
2018-06-08T11:24:30.336Z,73.03
2018-06-08T11:25:30.345Z,71.48
2018-06-08T11:26:30.412Z,72.25
2018-06-08T11:27:30.433Z,71.48
2018-06-08T11:28:30.368Z,71.77
2018-06-08T11:29:30.382Z,71.64
2018-06-08T11:30:30.389Z,71.19
2018-06-08T11:31:30.406Z,71.58
2018-06-08T11:32:30.402Z,70.18
2018-06-08T11:33:30.422Z,72.45
2018-06-08T11:34:30.425Z,70.61
2018-06-08T11:35:30.449Z,70.99
2018-06-08T11:36:30.449Z,67.99
2018-06-08T11:37:30.456Z,68.18
2018-06-08T11:38:30.453Z,68.96
2018-06-08T11:39:30.519Z,68.66
2018-06-08T11:40:30.515Z,69.06
2018-06-08T11:41:30.471Z,68.57
2018-06-08T11:42:30.478Z,68.41
2018-06-08T11:43:30.492Z,68.86
2018-06-08T11:44:30.501Z,68.99
2018-06-08T11:45:30.509Z,70.73
2018-06-08T11:47:51.559Z,71.80
2018-06-08T11:48:51.557Z,70.73
2018-06-08T11:49:51.554Z,70.51
2018-06-08T11:50:51.561Z,70.51
2018-06-08T11:51:51.569Z,70.51
2018-06-08T11:52:51.582Z,70.99
2018-06-08T11:53:51.591Z,70.80
2018-06-08T11:54:51.596Z,69.24
2018-06-08T11:55:51.611Z,69.83
2018-06-08T11:56:51.616Z,70.61
2018-06-08T11:57:51.624Z,71.09
2018-06-08T11:58:51.651Z,70.31
2018-06-08T11:59:51.645Z,68.21
2018-06-08T12:00:51.641Z,67.83
2018-06-08T12:01:51.748Z,66.76
2018-06-08T12:03:01.294Z,66.44
2018-06-08T12:04:45.120Z,66.72
2018-06-08T12:05:45.092Z,67.21
2018-06-08T12:06:45.091Z,66.63
2018-06-08T12:07:45.099Z,67.73
2018-06-08T12:08:45.110Z,68.12
2018-06-08T12:09:45.118Z,68.12
2018-06-08T12:10:45.124Z,69.34
2018-06-08T12:11:45.137Z,68.66
2018-06-08T12:12:45.140Z,69.54
2018-06-08T12:13:45.146Z,70.70
2018-06-08T12:14:45.153Z,69.86
2018-06-08T12:15:45.166Z,70.06
2018-06-08T12:16:45.172Z,68.89
2018-06-08T12:17:45.181Z,68.89
2018-06-08T12:18:45.187Z,69.28
2018-06-08T12:19:45.196Z,70.54
2018-06-08T12:20:45.203Z,69.38
2018-06-08T12:21:45.213Z,68.31
2018-06-08T12:22:45.222Z,66.86
2018-06-08T12:23:45.366Z,66.76
2018-06-08T12:24:45.230Z,68.02
2018-06-08T12:25:45.242Z,65.98
2018-06-08T12:26:45.251Z,66.27
2018-06-08T12:27:45.257Z,66.56
2018-06-08T12:28:45.265Z,64.82
2018-06-08T12:29:45.279Z,66.56
2018-06-08T12:30:45.300Z,65.89
2018-06-08T12:31:45.284Z,65.30
2018-06-08T12:32:45.297Z,65.50
2018-06-08T12:33:45.318Z,64.62
2018-06-08T12:34:45.312Z,64.43
2018-06-08T12:35:45.320Z,63.95
2018-06-08T12:36:45.324Z,63.36
2018-06-08T12:37:45.334Z,64.43
2018-06-08T12:38:45.343Z,64.82
2018-06-08T12:39:45.352Z,64.23
2018-06-08T12:40:45.364Z,64.53
2018-06-08T12:41:45.374Z,65.11
2018-06-08T12:42:45.379Z,64.43
2018-06-08T12:43:45.384Z,65.30
2018-06-08T12:44:45.395Z,66.79
2018-06-08T12:45:45.403Z,64.56
2018-06-08T12:46:45.405Z,64.65
2018-06-08T12:47:45.416Z,65.85
2018-06-08T12:48:45.418Z,65.33
2018-06-08T12:49:45.432Z,65.24
2018-06-08T12:50:45.431Z,65.85
2018-06-08T12:51:45.442Z,64.85
2018-06-08T12:52:45.454Z,64.65
2018-06-08T12:53:45.460Z,64.65
2018-06-08T12:54:45.476Z,65.43
2018-06-08T12:55:45.541Z,66.69
2018-06-08T12:56:45.493Z,67.37
2018-06-08T12:57:45.494Z,65.69
2018-06-08T12:58:45.499Z,65.50
2018-06-08T12:59:45.510Z,66.86
2018-06-08T13:00:45.517Z,65.89
2018-06-08T13:01:45.529Z,64.65
2018-06-08T13:02:45.534Z,64.62
2018-06-08T13:03:45.545Z,65.01
2018-06-08T13:04:45.550Z,64.46
2018-06-08T13:05:45.557Z,64.69
2018-06-08T13:06:45.569Z,62.91
2018-06-08T13:07:45.572Z,61.94
2018-06-08T13:08:45.581Z,61.77
2018-06-08T13:09:45.605Z,61.68
2018-06-08T13:10:45.603Z,61.87
2018-06-08T13:11:45.607Z,62.65
2018-06-08T13:12:45.614Z,61.77
2018-06-08T13:13:45.626Z,61.09
2018-06-08T13:14:45.634Z,61.48
2018-06-08T13:15:45.671Z,62.26
2018-06-08T13:16:45.656Z,62.45
2018-06-08T13:17:45.659Z,62.26
2018-06-08T13:18:45.660Z,61.97
2018-06-08T13:19:45.677Z,61.09